sensor_id;sensor_type;location;lat;lon;timestamp;temperature;humidity
22734;DHT22;11534;51.994;5.692;2022-10-16T00:01:20;11.90;99.90
22734;DHT22;11534;51.994;5.692;2022-10-16T00:03:47;11.90;99.90
22734;DHT22;11534;51.994;5.692;2022-10-16T00:06:15;11.90;99.90
22734;DHT22;11534;51.994;5.692;2022-10-16T00:08:41;11.80;99.90
22734;DHT22;11534;51.994;5.692;2022-10-16T00:11:13;11.90;99.90
22734;DHT22;11534;51.994;5.692;2022-10-16T00:13:41;11.90;99.90
22734;DHT22;11534;51.994;5.692;2022-10-16T00:16:07;11.90;99.90
22734;DHT22;11534;51.994;5.692;2022-10-16T00:18:34;11.90;99.90
22734;DHT22;11534;51.994;5.692;2022-10-16T00:21:18;11.90;99.90
22734;DHT22;11534;51.994;5.692;2022-10-16T00:23:44;11.90;99.90
22734;DHT22;11534;51.994;5.692;2022-10-16T00:26:13;11.90;99.90
22734;DHT22;11534;51.994;5.692;2022-10-16T00:28:39;11.90;99.90
22734;DHT22;11534;51.994;5.692;2022-10-16T00:31:07;11.90;99.90
22734;DHT22;11534;51.994;5.692;2022-10-16T00:33:34;11.90;99.90
22734;DHT22;11534;51.994;5.692;2022-10-16T00:36:01;11.90;99.90
22734;DHT22;11534;51.994;5.692;2022-10-16T00:38:27;11.90;99.90
22734;DHT22;11534;51.994;5.692;2022-10-16T00:40:52;11.90;99.90
22734;DHT22;11534;51.994;5.692;2022-10-16T00:43:41;11.80;99.90
22734;DHT22;11534;51.994;5.692;2022-10-16T00:49:10;11.80;99.90
22734;DHT22;11534;51.994;5.692;2022-10-16T00:54:16;11.80;99.90
22734;DHT22;11534;51.994;5.692;2022-10-16T00:56:43;11.80;99.90
22734;DHT22;11534;51.994;5.692;2022-10-16T00:59:23;11.90;99.90
22734;DHT22;11534;51.994;5.692;2022-10-16T01:01:50;11.90;99.90
22734;DHT22;11534;51.994;5.692;2022-10-16T01:04:16;11.90;99.90
22734;DHT22;11534;51.994;5.692;2022-10-16T01:07:13;11.90;99.90
22734;DHT22;11534;51.994;5.692;2022-10-16T01:10:07;11.90;99.90
22734;DHT22;11534;51.994;5.692;2022-10-16T01:18:18;12.00;99.90
22734;DHT22;11534;51.994;5.692;2022-10-16T01:21:16;12.00;99.90
22734;DHT22;11534;51.994;5.692;2022-10-16T01:24:05;12.00;99.90
22734;DHT22;11534;51.994;5.692;2022-10-16T01:29:35;12.10;99.90
22734;DHT22;11534;51.994;5.692;2022-10-16T01:34:52;12.10;99.90
22734;DHT22;11534;51.994;5.692;2022-10-16T01:37:40;12.10;99.90
22734;DHT22;11534;51.994;5.692;2022-10-16T01:40:11;12.10;99.90
22734;DHT22;11534;51.994;5.692;2022-10-16T01:42:43;12.10;99.90
22734;DHT22;11534;51.994;5.692;2022-10-16T01:45:12;12.10;99.90
22734;DHT22;11534;51.994;5.692;2022-10-16T01:47:40;12.10;99.90
22734;DHT22;11534;51.994;5.692;2022-10-16T01:50:08;12.10;99.90
22734;DHT22;11534;51.994;5.692;2022-10-16T01:52:37;12.20;99.90
22734;DHT22;11534;51.994;5.692;2022-10-16T01:55:06;12.20;99.90
22734;DHT22;11534;51.994;5.692;2022-10-16T01:57:34;12.20;99.90
22734;DHT22;11534;51.994;5.692;2022-10-16T02:00:06;12.20;99.90
22734;DHT22;11534;51.994;5.692;2022-10-16T02:02:33;12.20;99.90
22734;DHT22;11534;51.994;5.692;2022-10-16T02:05:14;12.20;99.90
22734;DHT22;11534;51.994;5.692;2022-10-16T02:07:41;12.20;99.90
22734;DHT22;11534;51.994;5.692;2022-10-16T02:10:08;12.20;99.90
22734;DHT22;11534;51.994;5.692;2022-10-16T02:12:37;12.20;99.90
22734;DHT22;11534;51.994;5.692;2022-10-16T02:15:05;12.10;99.90
22734;DHT22;11534;51.994;5.692;2022-10-16T02:17:31;12.10;99.90
22734;DHT22;11534;51.994;5.692;2022-10-16T02:19:58;12.10;99.90
22734;DHT22;11534;51.994;5.692;2022-10-16T02:22:32;12.10;99.90
22734;DHT22;11534;51.994;5.692;2022-10-16T02:25:32;12.10;99.90
22734;DHT22;11534;51.994;5.692;2022-10-16T02:28:07;12.10;99.90
22734;DHT22;11534;51.994;5.692;2022-10-16T02:30:48;12.10;99.90
22734;DHT22;11534;51.994;5.692;2022-10-16T02:33:16;12.10;99.90
22734;DHT22;11534;51.994;5.692;2022-10-16T02:35:44;12.10;99.90
22734;DHT22;11534;51.994;5.692;2022-10-16T02:38:12;12.10;99.90
22734;DHT22;11534;51.994;5.692;2022-10-16T02:40:39;12.10;99.90
22734;DHT22;11534;51.994;5.692;2022-10-16T02:43:06;12.10;99.90
22734;DHT22;11534;51.994;5.692;2022-10-16T02:45:33;12.00;99.90
22734;DHT22;11534;51.994;5.692;2022-10-16T02:47:59;12.10;99.90
22734;DHT22;11534;51.994;5.692;2022-10-16T02:50:24;12.00;99.90
22734;DHT22;11534;51.994;5.692;2022-10-16T02:52:51;12.00;99.90
22734;DHT22;11534;51.994;5.692;2022-10-16T02:55:17;12.00;99.90
22734;DHT22;11534;51.994;5.692;2022-10-16T02:57:42;12.00;99.90
22734;DHT22;11534;51.994;5.692;2022-10-16T03:00:14;12.00;99.90
22734;DHT22;11534;51.994;5.692;2022-10-16T03:02:40;12.00;99.90
22734;DHT22;11534;51.994;5.692;2022-10-16T03:05:06;12.00;99.90
22734;DHT22;11534;51.994;5.692;2022-10-16T03:07:31;12.10;99.90
22734;DHT22;11534;51.994;5.692;2022-10-16T03:09:57;12.10;99.90
22734;DHT22;11534;51.994;5.692;2022-10-16T03:12:28;12.10;99.90
22734;DHT22;11534;51.994;5.692;2022-10-16T03:14:55;12.10;99.90
22734;DHT22;11534;51.994;5.692;2022-10-16T03:17:22;12.10;99.90
22734;DHT22;11534;51.994;5.692;2022-10-16T03:19:48;12.10;99.90
22734;DHT22;11534;51.994;5.692;2022-10-16T03:22:13;12.10;99.90
22734;DHT22;11534;51.994;5.692;2022-10-16T03:24:39;12.00;99.90
22734;DHT22;11534;51.994;5.692;2022-10-16T03:27:05;12.00;99.90
22734;DHT22;11534;51.994;5.692;2022-10-16T03:29:31;12.10;99.90
22734;DHT22;11534;51.994;5.692;2022-10-16T03:31:58;12.10;99.90
22734;DHT22;11534;51.994;5.692;2022-10-16T03:34:24;12.10;99.90
22734;DHT22;11534;51.994;5.692;2022-10-16T03:36:50;12.10;99.90
22734;DHT22;11534;51.994;5.692;2022-10-16T03:39:15;12.10;99.90
22734;DHT22;11534;51.994;5.692;2022-10-16T03:41:41;12.00;99.90
22734;DHT22;11534;51.994;5.692;2022-10-16T03:44:07;12.00;99.90
22734;DHT22;11534;51.994;5.692;2022-10-16T03:46:34;12.00;99.90
22734;DHT22;11534;51.994;5.692;2022-10-16T03:48:59;12.00;99.90
22734;DHT22;11534;51.994;5.692;2022-10-16T03:51:25;12.00;99.90
22734;DHT22;11534;51.994;5.692;2022-10-16T03:53:51;12.00;99.90
22734;DHT22;11534;51.994;5.692;2022-10-16T03:56:17;12.00;99.90
22734;DHT22;11534;51.994;5.692;2022-10-16T03:58:43;12.00;99.90
22734;DHT22;11534;51.994;5.692;2022-10-16T04:01:09;12.00;99.90
22734;DHT22;11534;51.994;5.692;2022-10-16T04:03:34;11.90;99.90
22734;DHT22;11534;51.994;5.692;2022-10-16T04:06:00;11.90;99.90
22734;DHT22;11534;51.994;5.692;2022-10-16T04:08:25;11.90;99.90
22734;DHT22;11534;51.994;5.692;2022-10-16T04:10:51;11.90;99.90
22734;DHT22;11534;51.994;5.692;2022-10-16T04:13:17;11.90;99.90
22734;DHT22;11534;51.994;5.692;2022-10-16T04:15:44;11.90;99.90
22734;DHT22;11534;51.994;5.692;2022-10-16T04:18:10;11.90;99.90
22734;DHT22;11534;51.994;5.692;2022-10-16T04:20:36;11.90;99.90
22734;DHT22;11534;51.994;5.692;2022-10-16T04:23:02;12.00;99.90
22734;DHT22;11534;51.994;5.692;2022-10-16T04:25:28;12.00;99.90
22734;DHT22;11534;51.994;5.692;2022-10-16T04:27:54;12.00;99.90
22734;DHT22;11534;51.994;5.692;2022-10-16T04:30:20;12.00;99.90
22734;DHT22;11534;51.994;5.692;2022-10-16T04:32:50;12.00;99.90
22734;DHT22;11534;51.994;5.692;2022-10-16T04:35:20;12.00;99.90
22734;DHT22;11534;51.994;5.692;2022-10-16T04:37:46;12.00;99.90
22734;DHT22;11534;51.994;5.692;2022-10-16T04:40:13;12.00;99.90
22734;DHT22;11534;51.994;5.692;2022-10-16T04:42:38;11.90;99.90
22734;DHT22;11534;51.994;5.692;2022-10-16T04:45:05;12.00;99.90
22734;DHT22;11534;51.994;5.692;2022-10-16T04:47:31;11.90;99.90
22734;DHT22;11534;51.994;5.692;2022-10-16T04:49:57;12.00;99.90
22734;DHT22;11534;51.994;5.692;2022-10-16T04:52:24;11.90;99.90
22734;DHT22;11534;51.994;5.692;2022-10-16T04:54:50;11.90;99.90
22734;DHT22;11534;51.994;5.692;2022-10-16T04:57:16;11.90;99.90
22734;DHT22;11534;51.994;5.692;2022-10-16T04:59:42;11.90;99.90
22734;DHT22;11534;51.994;5.692;2022-10-16T05:02:08;11.90;99.90
22734;DHT22;11534;51.994;5.692;2022-10-16T05:04:34;11.80;99.90
22734;DHT22;11534;51.994;5.692;2022-10-16T05:07:00;11.80;99.90
22734;DHT22;11534;51.994;5.692;2022-10-16T05:09:26;11.80;99.90
22734;DHT22;11534;51.994;5.692;2022-10-16T05:11:52;11.80;99.90
22734;DHT22;11534;51.994;5.692;2022-10-16T05:14:17;11.80;99.90
22734;DHT22;11534;51.994;5.692;2022-10-16T05:16:43;11.80;99.90
22734;DHT22;11534;51.994;5.692;2022-10-16T05:19:09;11.80;99.90
22734;DHT22;11534;51.994;5.692;2022-10-16T05:21:35;11.80;99.90
22734;DHT22;11534;51.994;5.692;2022-10-16T05:24:01;11.80;99.90
22734;DHT22;11534;51.994;5.692;2022-10-16T05:26:26;11.70;99.90
22734;DHT22;11534;51.994;5.692;2022-10-16T05:28:52;11.70;99.90
22734;DHT22;11534;51.994;5.692;2022-10-16T05:31:18;11.70;99.90
22734;DHT22;11534;51.994;5.692;2022-10-16T05:33:43;11.70;99.90
22734;DHT22;11534;51.994;5.692;2022-10-16T05:36:10;11.70;99.90
22734;DHT22;11534;51.994;5.692;2022-10-16T05:38:36;11.70;99.90
22734;DHT22;11534;51.994;5.692;2022-10-16T05:41:03;11.70;99.90
22734;DHT22;11534;51.994;5.692;2022-10-16T05:43:30;11.60;99.90
22734;DHT22;11534;51.994;5.692;2022-10-16T05:46:02;11.60;99.90
22734;DHT22;11534;51.994;5.692;2022-10-16T05:48:28;11.60;99.90
22734;DHT22;11534;51.994;5.692;2022-10-16T05:51:05;11.60;99.90
22734;DHT22;11534;51.994;5.692;2022-10-16T05:53:33;11.60;99.90
22734;DHT22;11534;51.994;5.692;2022-10-16T05:56:00;11.70;99.90
22734;DHT22;11534;51.994;5.692;2022-10-16T05:58:29;11.70;99.90
22734;DHT22;11534;51.994;5.692;2022-10-16T06:01:01;11.70;99.90
22734;DHT22;11534;51.994;5.692;2022-10-16T06:03:26;11.70;99.90
22734;DHT22;11534;51.994;5.692;2022-10-16T06:05:52;11.70;99.90
22734;DHT22;11534;51.994;5.692;2022-10-16T06:08:20;11.80;99.90
22734;DHT22;11534;51.994;5.692;2022-10-16T06:10:45;11.80;99.90
22734;DHT22;11534;51.994;5.692;2022-10-16T06:13:12;11.80;99.90
22734;DHT22;11534;51.994;5.692;2022-10-16T06:15:39;11.80;99.90
22734;DHT22;11534;51.994;5.692;2022-10-16T06:18:07;11.80;99.90
22734;DHT22;11534;51.994;5.692;2022-10-16T06:20:33;11.80;99.90
22734;DHT22;11534;51.994;5.692;2022-10-16T06:22:58;11.90;99.90
22734;DHT22;11534;51.994;5.692;2022-10-16T06:25:24;11.90;99.90
22734;DHT22;11534;51.994;5.692;2022-10-16T06:27:50;11.90;99.90
22734;DHT22;11534;51.994;5.692;2022-10-16T06:30:15;12.00;99.90
22734;DHT22;11534;51.994;5.692;2022-10-16T06:32:41;12.00;99.90
22734;DHT22;11534;51.994;5.692;2022-10-16T06:35:07;12.00;99.90
22734;DHT22;11534;51.994;5.692;2022-10-16T06:37:32;12.10;99.90
22734;DHT22;11534;51.994;5.692;2022-10-16T06:39:59;12.10;99.90
22734;DHT22;11534;51.994;5.692;2022-10-16T06:42:25;12.10;99.90
22734;DHT22;11534;51.994;5.692;2022-10-16T06:44:51;12.10;99.90
22734;DHT22;11534;51.994;5.692;2022-10-16T06:47:17;12.20;99.90
22734;DHT22;11534;51.994;5.692;2022-10-16T06:49:43;12.10;99.90
22734;DHT22;11534;51.994;5.692;2022-10-16T06:52:08;12.20;99.90
22734;DHT22;11534;51.994;5.692;2022-10-16T06:54:34;12.20;99.90
22734;DHT22;11534;51.994;5.692;2022-10-16T06:56:59;12.20;99.90
22734;DHT22;11534;51.994;5.692;2022-10-16T06:59:27;12.20;99.90
22734;DHT22;11534;51.994;5.692;2022-10-16T07:01:52;12.20;99.90
22734;DHT22;11534;51.994;5.692;2022-10-16T07:04:18;12.20;99.90
22734;DHT22;11534;51.994;5.692;2022-10-16T07:06:43;12.30;99.90
22734;DHT22;11534;51.994;5.692;2022-10-16T07:09:10;12.30;99.90
22734;DHT22;11534;51.994;5.692;2022-10-16T07:11:37;12.30;99.90
22734;DHT22;11534;51.994;5.692;2022-10-16T07:14:04;12.40;99.90
22734;DHT22;11534;51.994;5.692;2022-10-16T07:16:31;12.40;99.90
22734;DHT22;11534;51.994;5.692;2022-10-16T07:18:59;12.40;99.90
22734;DHT22;11534;51.994;5.692;2022-10-16T07:21:27;12.50;99.90
22734;DHT22;11534;51.994;5.692;2022-10-16T07:23:58;12.50;99.90
22734;DHT22;11534;51.994;5.692;2022-10-16T07:26:25;12.60;99.90
22734;DHT22;11534;51.994;5.692;2022-10-16T07:28:51;12.60;99.90
22734;DHT22;11534;51.994;5.692;2022-10-16T07:31:19;12.70;99.90
22734;DHT22;11534;51.994;5.692;2022-10-16T07:33:45;12.70;99.90
22734;DHT22;11534;51.994;5.692;2022-10-16T07:36:14;12.70;99.90
22734;DHT22;11534;51.994;5.692;2022-10-16T07:38:40;12.80;99.90
22734;DHT22;11534;51.994;5.692;2022-10-16T07:41:13;12.70;99.90
22734;DHT22;11534;51.994;5.692;2022-10-16T07:43:40;12.80;99.90
22734;DHT22;11534;51.994;5.692;2022-10-16T07:46:10;12.80;99.90
22734;DHT22;11534;51.994;5.692;2022-10-16T07:48:36;12.80;99.90
22734;DHT22;11534;51.994;5.692;2022-10-16T07:51:04;12.90;99.90
22734;DHT22;11534;51.994;5.692;2022-10-16T07:53:30;12.90;99.90
22734;DHT22;11534;51.994;5.692;2022-10-16T07:58:32;13.00;99.90
22734;DHT22;11534;51.994;5.692;2022-10-16T08:00:58;13.00;99.90
22734;DHT22;11534;51.994;5.692;2022-10-16T08:06:00;13.10;99.90
22734;DHT22;11534;51.994;5.692;2022-10-16T08:08:27;13.10;99.90
22734;DHT22;11534;51.994;5.692;2022-10-16T08:10:53;13.20;99.90
22734;DHT22;11534;51.994;5.692;2022-10-16T08:13:20;13.20;99.90
22734;DHT22;11534;51.994;5.692;2022-10-16T08:15:46;13.20;99.90
22734;DHT22;11534;51.994;5.692;2022-10-16T08:18:13;13.20;99.90
22734;DHT22;11534;51.994;5.692;2022-10-16T08:20:39;13.20;99.90
22734;DHT22;11534;51.994;5.692;2022-10-16T08:23:13;13.20;99.90
22734;DHT22;11534;51.994;5.692;2022-10-16T08:25:41;13.10;99.90
22734;DHT22;11534;51.994;5.692;2022-10-16T08:28:08;13.10;99.90
22734;DHT22;11534;51.994;5.692;2022-10-16T08:30:35;13.10;99.90
22734;DHT22;11534;51.994;5.692;2022-10-16T08:33:01;13.10;99.90
22734;DHT22;11534;51.994;5.692;2022-10-16T08:35:27;13.10;99.90
22734;DHT22;11534;51.994;5.692;2022-10-16T08:37:53;13.00;99.90
22734;DHT22;11534;51.994;5.692;2022-10-16T08:40:25;13.20;99.90
22734;DHT22;11534;51.994;5.692;2022-10-16T08:47:57;13.30;99.90
22734;DHT22;11534;51.994;5.692;2022-10-16T08:50:30;13.30;99.90
22734;DHT22;11534;51.994;5.692;2022-10-16T08:52:57;13.30;99.90
22734;DHT22;11534;51.994;5.692;2022-10-16T08:55:45;13.40;99.90
22734;DHT22;11534;51.994;5.692;2022-10-16T08:58:17;13.40;99.90
22734;DHT22;11534;51.994;5.692;2022-10-16T09:00:46;13.50;99.90
22734;DHT22;11534;51.994;5.692;2022-10-16T09:09:30;13.70;99.90
22734;DHT22;11534;51.994;5.692;2022-10-16T09:14:40;13.70;99.90
22734;DHT22;11534;51.994;5.692;2022-10-16T09:20:03;13.90;99.90
22734;DHT22;11534;51.994;5.692;2022-10-16T09:22:33;14.00;99.90
22734;DHT22;11534;51.994;5.692;2022-10-16T09:25:14;14.10;99.90
22734;DHT22;11534;51.994;5.692;2022-10-16T09:27:43;14.20;99.90
22734;DHT22;11534;51.994;5.692;2022-10-16T09:30:12;14.30;99.90
22734;DHT22;11534;51.994;5.692;2022-10-16T09:32:40;14.40;99.90
22734;DHT22;11534;51.994;5.692;2022-10-16T09:35:17;14.60;99.90
22734;DHT22;11534;51.994;5.692;2022-10-16T09:37:45;14.70;99.90
22734;DHT22;11534;51.994;5.692;2022-10-16T09:40:23;14.80;99.90
22734;DHT22;11534;51.994;5.692;2022-10-16T09:43:03;14.90;99.90
22734;DHT22;11534;51.994;5.692;2022-10-16T09:45:31;15.00;99.90
22734;DHT22;11534;51.994;5.692;2022-10-16T09:47:57;15.10;99.90
22734;DHT22;11534;51.994;5.692;2022-10-16T09:50:26;15.10;99.90
22734;DHT22;11534;51.994;5.692;2022-10-16T09:53:10;15.20;99.90
22734;DHT22;11534;51.994;5.692;2022-10-16T09:55:36;15.30;99.90
22734;DHT22;11534;51.994;5.692;2022-10-16T09:58:13;15.30;99.90
22734;DHT22;11534;51.994;5.692;2022-10-16T10:00:41;15.40;99.90
22734;DHT22;11534;51.994;5.692;2022-10-16T10:03:11;15.40;99.90
22734;DHT22;11534;51.994;5.692;2022-10-16T10:05:39;15.60;99.90
22734;DHT22;11534;51.994;5.692;2022-10-16T10:08:06;15.60;99.90
22734;DHT22;11534;51.994;5.692;2022-10-16T10:10:41;15.70;99.90
22734;DHT22;11534;51.994;5.692;2022-10-16T10:13:22;15.80;99.90
22734;DHT22;11534;51.994;5.692;2022-10-16T10:15:48;15.80;99.90
22734;DHT22;11534;51.994;5.692;2022-10-16T10:18:21;15.90;99.90
22734;DHT22;11534;51.994;5.692;2022-10-16T10:21:00;15.80;99.90
22734;DHT22;11534;51.994;5.692;2022-10-16T10:23:27;16.00;99.90
22734;DHT22;11534;51.994;5.692;2022-10-16T10:26:20;16.10;99.90
22734;DHT22;11534;51.994;5.692;2022-10-16T10:31:18;16.50;99.90
22734;DHT22;11534;51.994;5.692;2022-10-16T10:39:12;16.50;99.90
22734;DHT22;11534;51.994;5.692;2022-10-16T10:42:17;16.60;99.90
22734;DHT22;11534;51.994;5.692;2022-10-16T10:45:16;16.70;99.90
22734;DHT22;11534;51.994;5.692;2022-10-16T10:48:18;17.00;99.90
22734;DHT22;11534;51.994;5.692;2022-10-16T10:51:01;17.20;99.90
22734;DHT22;11534;51.994;5.692;2022-10-16T11:02:18;17.20;99.90
22734;DHT22;11534;51.994;5.692;2022-10-16T11:08:00;17.10;99.90
22734;DHT22;11534;51.994;5.692;2022-10-16T11:10:31;17.20;99.90
22734;DHT22;11534;51.994;5.692;2022-10-16T11:13:26;17.50;99.90
22734;DHT22;11534;51.994;5.692;2022-10-16T11:15:57;17.70;99.90
22734;DHT22;11534;51.994;5.692;2022-10-16T11:18:49;18.20;99.90
22734;DHT22;11534;51.994;5.692;2022-10-16T11:21:19;18.70;99.90
22734;DHT22;11534;51.994;5.692;2022-10-16T11:24:00;19.00;99.90
22734;DHT22;11534;51.994;5.692;2022-10-16T11:26:40;18.60;99.90
22734;DHT22;11534;51.994;5.692;2022-10-16T11:29:23;18.30;99.90
22734;DHT22;11534;51.994;5.692;2022-10-16T11:31:55;18.00;99.90
22734;DHT22;11534;51.994;5.692;2022-10-16T11:34:49;17.90;99.90
22734;DHT22;11534;51.994;5.692;2022-10-16T11:37:23;18.40;99.90
22734;DHT22;11534;51.994;5.692;2022-10-16T11:39:50;19.00;99.90
22734;DHT22;11534;51.994;5.692;2022-10-16T11:42:28;19.50;99.90
22734;DHT22;11534;51.994;5.692;2022-10-16T11:50:42;19.70;99.90
22734;DHT22;11534;51.994;5.692;2022-10-16T11:53:20;19.80;99.90
22734;DHT22;11534;51.994;5.692;2022-10-16T11:55:47;19.80;99.90
22734;DHT22;11534;51.994;5.692;2022-10-16T12:03:38;20.20;99.90
22734;DHT22;11534;51.994;5.692;2022-10-16T12:08:54;20.90;99.90
22734;DHT22;11534;51.994;5.692;2022-10-16T12:11:40;21.10;99.90
22734;DHT22;11534;51.994;5.692;2022-10-16T12:14:32;21.00;99.90
22734;DHT22;11534;51.994;5.692;2022-10-16T12:17:34;20.90;99.90
22734;DHT22;11534;51.994;5.692;2022-10-16T12:25:24;19.90;99.90
22734;DHT22;11534;51.994;5.692;2022-10-16T12:28:05;19.60;99.90
22734;DHT22;11534;51.994;5.692;2022-10-16T12:30:34;19.10;99.90
22734;DHT22;11534;51.994;5.692;2022-10-16T12:33:03;18.80;99.90
22734;DHT22;11534;51.994;5.692;2022-10-16T12:35:35;18.70;99.90
22734;DHT22;11534;51.994;5.692;2022-10-16T12:38:16;19.00;99.90
22734;DHT22;11534;51.994;5.692;2022-10-16T12:40:44;19.60;99.90
22734;DHT22;11534;51.994;5.692;2022-10-16T12:46:04;19.40;99.90
22734;DHT22;11534;51.994;5.692;2022-10-16T12:48:30;19.30;99.90
22734;DHT22;11534;51.994;5.692;2022-10-16T12:50:56;19.40;99.90
22734;DHT22;11534;51.994;5.692;2022-10-16T12:53:26;19.50;99.90
22734;DHT22;11534;51.994;5.692;2022-10-16T12:59:09;19.60;99.90
22734;DHT22;11534;51.994;5.692;2022-10-16T13:10:38;19.50;99.90
22734;DHT22;11534;51.994;5.692;2022-10-16T13:18:29;19.20;99.90
22734;DHT22;11534;51.994;5.692;2022-10-16T13:24:09;18.90;99.90
22734;DHT22;11534;51.994;5.692;2022-10-16T13:29:13;18.60;99.90
22734;DHT22;11534;51.994;5.692;2022-10-16T13:31:41;18.50;99.90
22734;DHT22;11534;51.994;5.692;2022-10-16T13:34:14;18.40;99.90
22734;DHT22;11534;51.994;5.692;2022-10-16T13:36:51;18.30;99.90
22734;DHT22;11534;51.994;5.692;2022-10-16T13:39:24;18.20;99.90
22734;DHT22;11534;51.994;5.692;2022-10-16T13:42:10;18.10;99.90
22734;DHT22;11534;51.994;5.692;2022-10-16T13:44:46;18.10;99.90
22734;DHT22;11534;51.994;5.692;2022-10-16T13:47:18;18.00;99.90
22734;DHT22;11534;51.994;5.692;2022-10-16T13:49:44;18.10;99.90
22734;DHT22;11534;51.994;5.692;2022-10-16T13:52:20;18.10;99.90
22734;DHT22;11534;51.994;5.692;2022-10-16T13:54:47;18.00;99.90
22734;DHT22;11534;51.994;5.692;2022-10-16T13:57:14;18.00;99.90
22734;DHT22;11534;51.994;5.692;2022-10-16T13:59:40;18.00;99.90
22734;DHT22;11534;51.994;5.692;2022-10-16T14:02:35;18.00;99.90
22734;DHT22;11534;51.994;5.692;2022-10-16T14:05:04;18.00;99.90
22734;DHT22;11534;51.994;5.692;2022-10-16T14:07:35;17.90;99.90
22734;DHT22;11534;51.994;5.692;2022-10-16T14:10:05;17.90;99.90
22734;DHT22;11534;51.994;5.692;2022-10-16T14:12:31;17.90;99.90
22734;DHT22;11534;51.994;5.692;2022-10-16T14:14:58;17.80;99.90
22734;DHT22;11534;51.994;5.692;2022-10-16T14:17:26;17.80;99.90
22734;DHT22;11534;51.994;5.692;2022-10-16T14:19:55;17.80;99.90
22734;DHT22;11534;51.994;5.692;2022-10-16T14:22:37;17.80;99.90
22734;DHT22;11534;51.994;5.692;2022-10-16T14:27:44;17.70;99.90
22734;DHT22;11534;51.994;5.692;2022-10-16T14:30:23;17.70;99.90
22734;DHT22;11534;51.994;5.692;2022-10-16T14:32:59;17.70;99.90
22734;DHT22;11534;51.994;5.692;2022-10-16T14:35:34;17.70;99.90
22734;DHT22;11534;51.994;5.692;2022-10-16T14:38:03;17.60;99.90
22734;DHT22;11534;51.994;5.692;2022-10-16T14:40:35;17.60;99.90
22734;DHT22;11534;51.994;5.692;2022-10-16T14:43:03;17.60;99.90
22734;DHT22;11534;51.994;5.692;2022-10-16T14:45:32;17.60;99.90
22734;DHT22;11534;51.994;5.692;2022-10-16T14:48:01;17.50;99.90
22734;DHT22;11534;51.994;5.692;2022-10-16T14:50:28;17.40;99.90
22734;DHT22;11534;51.994;5.692;2022-10-16T14:52:59;17.40;99.90
22734;DHT22;11534;51.994;5.692;2022-10-16T14:55:25;17.30;99.90
22734;DHT22;11534;51.994;5.692;2022-10-16T14:57:51;17.20;99.90
22734;DHT22;11534;51.994;5.692;2022-10-16T15:00:23;17.20;99.90
22734;DHT22;11534;51.994;5.692;2022-10-16T15:02:50;17.10;99.90
22734;DHT22;11534;51.994;5.692;2022-10-16T15:07:47;17.10;99.90
22734;DHT22;11534;51.994;5.692;2022-10-16T15:10:15;17.10;99.90
22734;DHT22;11534;51.994;5.692;2022-10-16T15:12:41;17.10;99.90
22734;DHT22;11534;51.994;5.692;2022-10-16T15:15:34;17.10;99.90
22734;DHT22;11534;51.994;5.692;2022-10-16T15:18:01;17.00;99.90
22734;DHT22;11534;51.994;5.692;2022-10-16T15:20:29;17.00;99.90
22734;DHT22;11534;51.994;5.692;2022-10-16T15:22:56;17.00;99.90
22734;DHT22;11534;51.994;5.692;2022-10-16T15:25:35;17.00;99.90
22734;DHT22;11534;51.994;5.692;2022-10-16T15:28:03;16.90;99.90
22734;DHT22;11534;51.994;5.692;2022-10-16T15:30:29;16.90;99.90
22734;DHT22;11534;51.994;5.692;2022-10-16T15:32:55;16.90;99.90
22734;DHT22;11534;51.994;5.692;2022-10-16T15:35:36;16.80;99.90
22734;DHT22;11534;51.994;5.692;2022-10-16T15:38:02;16.80;99.90
22734;DHT22;11534;51.994;5.692;2022-10-16T15:40:28;16.70;99.90
22734;DHT22;11534;51.994;5.692;2022-10-16T15:42:53;16.70;99.90
22734;DHT22;11534;51.994;5.692;2022-10-16T15:45:20;16.70;99.90
22734;DHT22;11534;51.994;5.692;2022-10-16T15:47:46;16.60;99.90
22734;DHT22;11534;51.994;5.692;2022-10-16T15:50:14;16.60;99.90
22734;DHT22;11534;51.994;5.692;2022-10-16T15:52:40;16.60;99.90
22734;DHT22;11534;51.994;5.692;2022-10-16T15:55:11;16.50;99.90
22734;DHT22;11534;51.994;5.692;2022-10-16T15:57:37;16.50;99.90
22734;DHT22;11534;51.994;5.692;2022-10-16T16:00:19;16.50;99.90
22734;DHT22;11534;51.994;5.692;2022-10-16T16:02:53;16.40;99.90
22734;DHT22;11534;51.994;5.692;2022-10-16T16:05:22;16.30;99.90
22734;DHT22;11534;51.994;5.692;2022-10-16T16:07:48;16.30;99.90
22734;DHT22;11534;51.994;5.692;2022-10-16T16:10:15;16.20;99.90
22734;DHT22;11534;51.994;5.692;2022-10-16T16:12:40;16.20;99.90
22734;DHT22;11534;51.994;5.692;2022-10-16T16:15:09;16.20;99.90
22734;DHT22;11534;51.994;5.692;2022-10-16T16:17:35;16.10;99.90
22734;DHT22;11534;51.994;5.692;2022-10-16T16:20:02;16.00;99.90
22734;DHT22;11534;51.994;5.692;2022-10-16T16:22:29;15.90;99.90
22734;DHT22;11534;51.994;5.692;2022-10-16T16:24:57;15.90;99.90
22734;DHT22;11534;51.994;5.692;2022-10-16T16:27:23;15.90;99.90
22734;DHT22;11534;51.994;5.692;2022-10-16T16:29:53;15.90;99.90
22734;DHT22;11534;51.994;5.692;2022-10-16T16:32:20;15.80;99.90
22734;DHT22;11534;51.994;5.692;2022-10-16T16:34:46;15.80;99.90
22734;DHT22;11534;51.994;5.692;2022-10-16T16:37:12;15.70;99.90
22734;DHT22;11534;51.994;5.692;2022-10-16T16:39:37;15.70;99.90
22734;DHT22;11534;51.994;5.692;2022-10-16T16:42:03;15.60;99.90
22734;DHT22;11534;51.994;5.692;2022-10-16T16:44:31;15.60;99.90
22734;DHT22;11534;51.994;5.692;2022-10-16T16:46:57;15.70;99.90
22734;DHT22;11534;51.994;5.692;2022-10-16T16:49:23;15.60;99.90
22734;DHT22;11534;51.994;5.692;2022-10-16T16:51:49;15.50;99.90
22734;DHT22;11534;51.994;5.692;2022-10-16T16:54:15;15.50;99.90
22734;DHT22;11534;51.994;5.692;2022-10-16T16:56:41;15.40;99.90
22734;DHT22;11534;51.994;5.692;2022-10-16T16:59:13;15.40;99.90
22734;DHT22;11534;51.994;5.692;2022-10-16T17:01:39;15.40;99.90
22734;DHT22;11534;51.994;5.692;2022-10-16T17:04:05;15.30;99.90
22734;DHT22;11534;51.994;5.692;2022-10-16T17:06:31;15.30;99.90
22734;DHT22;11534;51.994;5.692;2022-10-16T17:08:57;15.30;99.90
22734;DHT22;11534;51.994;5.692;2022-10-16T17:11:26;15.20;99.90
22734;DHT22;11534;51.994;5.692;2022-10-16T17:13:53;15.20;99.90
22734;DHT22;11534;51.994;5.692;2022-10-16T17:16:20;15.20;99.90
22734;DHT22;11534;51.994;5.692;2022-10-16T17:18:46;15.20;99.90
22734;DHT22;11534;51.994;5.692;2022-10-16T17:21:13;15.10;99.90
22734;DHT22;11534;51.994;5.692;2022-10-16T17:23:39;15.10;99.90
22734;DHT22;11534;51.994;5.692;2022-10-16T17:26:12;15.10;99.90
22734;DHT22;11534;51.994;5.692;2022-10-16T17:28:38;15.10;99.90
22734;DHT22;11534;51.994;5.692;2022-10-16T17:31:41;15.10;99.90
22734;DHT22;11534;51.994;5.692;2022-10-16T17:34:08;15.10;99.90
22734;DHT22;11534;51.994;5.692;2022-10-16T17:36:37;15.00;99.90